sensor_id;sensor_type;location;lat;lon;timestamp;P1;durP1;ratioP1;P2;durP2;ratioP2
59854;SDS011;45732;52.850;6.896;2023-05-15T00:00:49;54.00;;;35.67;;
59854;SDS011;45732;52.850;6.896;2023-05-15T00:03:15;53.95;;;36.65;;
59854;SDS011;45732;52.850;6.896;2023-05-15T00:05:42;47.80;;;36.97;;
59854;SDS011;45732;52.850;6.896;2023-05-15T00:08:08;47.88;;;36.25;;
59854;SDS011;45732;52.850;6.896;2023-05-15T00:10:33;52.55;;;34.90;;
59854;SDS011;45732;52.850;6.896;2023-05-15T00:12:59;67.20;;;36.17;;
59854;SDS011;45732;52.850;6.896;2023-05-15T00:15:25;48.97;;;36.65;;
59854;SDS011;45732;52.850;6.896;2023-05-15T00:17:51;48.58;;;36.70;;
59854;SDS011;45732;52.850;6.896;2023-05-15T00:20:16;57.83;;;36.47;;
59854;SDS011;45732;52.850;6.896;2023-05-15T00:22:42;59.22;;;35.97;;
59854;SDS011;45732;52.850;6.896;2023-05-15T00:25:08;65.95;;;36.83;;
59854;SDS011;45732;52.850;6.896;2023-05-15T00:27:34;54.67;;;35.53;;
59854;SDS011;45732;52.850;6.896;2023-05-15T00:30:00;55.65;;;35.45;;
59854;SDS011;45732;52.850;6.896;2023-05-15T00:32:26;45.72;;;35.30;;
59854;SDS011;45732;52.850;6.896;2023-05-15T00:34:51;79.53;;;35.25;;
59854;SDS011;45732;52.850;6.896;2023-05-15T00:37:17;47.75;;;34.45;;
59854;SDS011;45732;52.850;6.896;2023-05-15T00:39:43;49.60;;;36.45;;
59854;SDS011;45732;52.850;6.896;2023-05-15T00:42:09;49.40;;;36.65;;
59854;SDS011;45732;52.850;6.896;2023-05-15T00:44:35;55.78;;;37.83;;
59854;SDS011;45732;52.850;6.896;2023-05-15T00:47:01;47.40;;;35.80;;
59854;SDS011;45732;52.850;6.896;2023-05-15T00:49:30;50.80;;;36.42;;
59854;SDS011;45732;52.850;6.896;2023-05-15T00:51:59;50.55;;;37.58;;
59854;SDS011;45732;52.850;6.896;2023-05-15T00:54:27;61.53;;;40.42;;
59854;SDS011;45732;52.850;6.896;2023-05-15T00:56:56;53.25;;;38.72;;
59854;SDS011;45732;52.850;6.896;2023-05-15T00:59:25;54.35;;;38.17;;
59854;SDS011;45732;52.850;6.896;2023-05-15T01:01:52;50.03;;;37.13;;
59854;SDS011;45732;52.850;6.896;2023-05-15T01:04:18;55.60;;;38.30;;
59854;SDS011;45732;52.850;6.896;2023-05-15T01:06:44;51.20;;;37.92;;
59854;SDS011;45732;52.850;6.896;2023-05-15T01:09:10;52.75;;;39.05;;
59854;SDS011;45732;52.850;6.896;2023-05-15T01:11:37;53.40;;;38.20;;
59854;SDS011;45732;52.850;6.896;2023-05-15T01:14:06;54.97;;;39.85;;
59854;SDS011;45732;52.850;6.896;2023-05-15T01:16:32;60.17;;;41.97;;
59854;SDS011;45732;52.850;6.896;2023-05-15T01:18:59;56.55;;;39.55;;
59854;SDS011;45732;52.850;6.896;2023-05-15T01:32:42;54.45;;;39.75;;
59854;SDS011;45732;52.850;6.896;2023-05-15T01:37:45;63.25;;;40.15;;
59854;SDS011;45732;52.850;6.896;2023-05-15T01:40:14;50.83;;;37.05;;
59854;SDS011;45732;52.850;6.896;2023-05-15T01:42:43;51.00;;;37.03;;
59854;SDS011;45732;52.850;6.896;2023-05-15T01:45:18;48.28;;;36.47;;
59854;SDS011;45732;52.850;6.896;2023-05-15T01:47:47;60.25;;;37.92;;
59854;SDS011;45732;52.850;6.896;2023-05-15T01:50:14;69.70;;;38.05;;
59854;SDS011;45732;52.850;6.896;2023-05-15T01:52:50;63.55;;;38.55;;
59854;SDS011;45732;52.850;6.896;2023-05-15T01:55:21;66.78;;;36.22;;
59854;SDS011;45732;52.850;6.896;2023-05-15T01:57:47;54.42;;;36.60;;
59854;SDS011;45732;52.850;6.896;2023-05-15T02:00:15;83.10;;;36.63;;
59854;SDS011;45732;52.850;6.896;2023-05-15T02:02:42;80.40;;;35.03;;
59854;SDS011;45732;52.850;6.896;2023-05-15T02:05:09;55.72;;;33.95;;
59854;SDS011;45732;52.850;6.896;2023-05-15T02:07:37;68.60;;;35.00;;
59854;SDS011;45732;52.850;6.896;2023-05-15T02:10:03;61.53;;;35.25;;
59854;SDS011;45732;52.850;6.896;2023-05-15T02:12:29;70.32;;;36.00;;
59854;SDS011;45732;52.850;6.896;2023-05-15T02:14:56;53.95;;;35.03;;
59854;SDS011;45732;52.850;6.896;2023-05-15T02:17:23;44.72;;;34.55;;
59854;SDS011;45732;52.850;6.896;2023-05-15T02:19:49;50.78;;;36.33;;
59854;SDS011;45732;52.850;6.896;2023-05-15T02:22:15;43.28;;;34.60;;
59854;SDS011;45732;52.850;6.896;2023-05-15T02:24:40;52.58;;;35.13;;
59854;SDS011;45732;52.850;6.896;2023-05-15T02:27:16;45.80;;;33.30;;
59854;SDS011;45732;52.850;6.896;2023-05-15T02:35:58;106.88;;;38.05;;
59854;SDS011;45732;52.850;6.896;2023-05-15T02:38:48;69.57;;;35.53;;
59854;SDS011;45732;52.850;6.896;2023-05-15T02:41:16;47.65;;;35.33;;
59854;SDS011;45732;52.850;6.896;2023-05-15T02:43:43;56.28;;;36.50;;
59854;SDS011;45732;52.850;6.896;2023-05-15T02:46:12;52.55;;;37.05;;
59854;SDS011;45732;52.850;6.896;2023-05-15T02:48:40;49.40;;;37.28;;
59854;SDS011;45732;52.850;6.896;2023-05-15T02:51:07;54.85;;;36.67;;
59854;SDS011;45732;52.850;6.896;2023-05-15T02:53:40;47.80;;;35.03;;
59854;SDS011;45732;52.850;6.896;2023-05-15T02:56:07;54.60;;;38.97;;
59854;SDS011;45732;52.850;6.896;2023-05-15T02:58:33;53.45;;;38.90;;
59854;SDS011;45732;52.850;6.896;2023-05-15T03:01:00;54.63;;;39.90;;
59854;SDS011;45732;52.850;6.896;2023-05-15T03:03:26;49.63;;;38.05;;
59854;SDS011;45732;52.850;6.896;2023-05-15T03:05:51;60.22;;;37.15;;
59854;SDS011;45732;52.850;6.896;2023-05-15T03:08:17;49.63;;;35.95;;
59854;SDS011;45732;52.850;6.896;2023-05-15T03:10:43;73.22;;;35.53;;
59854;SDS011;45732;52.850;6.896;2023-05-15T03:13:09;50.50;;;36.33;;
59854;SDS011;45732;52.850;6.896;2023-05-15T03:15:35;49.72;;;35.30;;
59854;SDS011;45732;52.850;6.896;2023-05-15T03:18:00;92.47;;;40.25;;
59854;SDS011;45732;52.850;6.896;2023-05-15T03:20:26;76.40;;;39.70;;
59854;SDS011;45732;52.850;6.896;2023-05-15T03:22:52;63.92;;;38.33;;
59854;SDS011;45732;52.850;6.896;2023-05-15T03:25:18;60.88;;;40.72;;
59854;SDS011;45732;52.850;6.896;2023-05-15T03:27:44;64.10;;;39.17;;
59854;SDS011;45732;52.850;6.896;2023-05-15T03:30:09;61.03;;;41.28;;
59854;SDS011;45732;52.850;6.896;2023-05-15T03:32:35;58.45;;;39.45;;
59854;SDS011;45732;52.850;6.896;2023-05-15T03:35:01;58.92;;;36.85;;
59854;SDS011;45732;52.850;6.896;2023-05-15T03:37:27;46.30;;;35.95;;
59854;SDS011;45732;52.850;6.896;2023-05-15T03:39:53;72.00;;;34.38;;
59854;SDS011;45732;52.850;6.896;2023-05-15T03:42:19;90.65;;;36.22;;
59854;SDS011;45732;52.850;6.896;2023-05-15T03:44:47;67.95;;;35.58;;
59854;SDS011;45732;52.850;6.896;2023-05-15T03:47:14;58.53;;;34.08;;
59854;SDS011;45732;52.850;6.896;2023-05-15T03:49:40;44.90;;;33.50;;
59854;SDS011;45732;52.850;6.896;2023-05-15T03:52:06;45.42;;;34.65;;
59854;SDS011;45732;52.850;6.896;2023-05-15T03:54:32;65.38;;;36.35;;
59854;SDS011;45732;52.850;6.896;2023-05-15T03:56:58;48.42;;;36.00;;
59854;SDS011;45732;52.850;6.896;2023-05-15T03:59:24;47.13;;;35.58;;
59854;SDS011;45732;52.850;6.896;2023-05-15T04:01:50;51.10;;;37.53;;
59854;SDS011;45732;52.850;6.896;2023-05-15T04:04:15;49.55;;;36.47;;
59854;SDS011;45732;52.850;6.896;2023-05-15T04:06:41;49.03;;;36.92;;
59854;SDS011;45732;52.850;6.896;2023-05-15T04:09:07;48.67;;;36.33;;
59854;SDS011;45732;52.850;6.896;2023-05-15T04:11:33;86.43;;;34.38;;
59854;SDS011;45732;52.850;6.896;2023-05-15T04:13:59;50.42;;;33.38;;
59854;SDS011;45732;52.850;6.896;2023-05-15T04:16:25;71.53;;;35.75;;
59854;SDS011;45732;52.850;6.896;2023-05-15T04:18:51;48.88;;;35.50;;
59854;SDS011;45732;52.850;6.896;2023-05-15T04:21:17;44.80;;;33.85;;
59854;SDS011;45732;52.850;6.896;2023-05-15T04:23:42;49.50;;;35.30;;
59854;SDS011;45732;52.850;6.896;2023-05-15T04:26:08;67.28;;;36.53;;
59854;SDS011;45732;52.850;6.896;2023-05-15T04:28:34;67.05;;;35.50;;
59854;SDS011;45732;52.850;6.896;2023-05-15T04:31:00;68.32;;;36.13;;
59854;SDS011;45732;52.850;6.896;2023-05-15T04:33:25;50.30;;;34.67;;
59854;SDS011;45732;52.850;6.896;2023-05-15T04:35:51;54.90;;;35.50;;
59854;SDS011;45732;52.850;6.896;2023-05-15T04:38:17;47.95;;;34.38;;
59854;SDS011;45732;52.850;6.896;2023-05-15T04:40:43;45.28;;;34.58;;
59854;SDS011;45732;52.850;6.896;2023-05-15T04:43:09;44.03;;;34.97;;
59854;SDS011;45732;52.850;6.896;2023-05-15T04:45:35;45.95;;;35.20;;
59854;SDS011;45732;52.850;6.896;2023-05-15T04:48:01;49.35;;;35.20;;
59854;SDS011;45732;52.850;6.896;2023-05-15T04:50:26;52.20;;;36.67;;
59854;SDS011;45732;52.850;6.896;2023-05-15T04:52:52;63.25;;;36.63;;
59854;SDS011;45732;52.850;6.896;2023-05-15T04:55:18;47.15;;;35.72;;
59854;SDS011;45732;52.850;6.896;2023-05-15T04:57:47;49.22;;;34.95;;
59854;SDS011;45732;52.850;6.896;2023-05-15T05:00:12;55.85;;;33.40;;
59854;SDS011;45732;52.850;6.896;2023-05-15T05:02:39;41.25;;;32.45;;
59854;SDS011;45732;52.850;6.896;2023-05-15T05:05:07;42.20;;;32.53;;
59854;SDS011;45732;52.850;6.896;2023-05-15T05:07:33;49.67;;;34.78;;
59854;SDS011;45732;52.850;6.896;2023-05-15T05:09:59;44.03;;;33.45;;
59854;SDS011;45732;52.850;6.896;2023-05-15T05:12:26;49.53;;;34.05;;
59854;SDS011;45732;52.850;6.896;2023-05-15T05:14:51;45.95;;;32.80;;
59854;SDS011;45732;52.850;6.896;2023-05-15T05:17:17;62.35;;;32.05;;
59854;SDS011;45732;52.850;6.896;2023-05-15T05:19:43;50.17;;;30.75;;
59854;SDS011;45732;52.850;6.896;2023-05-15T05:22:09;40.42;;;30.85;;
59854;SDS011;45732;52.850;6.896;2023-05-15T05:24:35;48.28;;;29.55;;
59854;SDS011;45732;52.850;6.896;2023-05-15T05:27:01;52.40;;;31.20;;
59854;SDS011;45732;52.850;6.896;2023-05-15T05:29:28;40.30;;;29.40;;
59854;SDS011;45732;52.850;6.896;2023-05-15T05:31:54;37.97;;;29.48;;
59854;SDS011;45732;52.850;6.896;2023-05-15T05:34:20;40.53;;;28.77;;
59854;SDS011;45732;52.850;6.896;2023-05-15T05:36:46;36.53;;;28.67;;
59854;SDS011;45732;52.850;6.896;2023-05-15T05:39:13;33.80;;;26.95;;
59854;SDS011;45732;52.850;6.896;2023-05-15T05:41:40;43.30;;;28.45;;
59854;SDS011;45732;52.850;6.896;2023-05-15T05:44:06;42.05;;;30.15;;
59854;SDS011;45732;52.850;6.896;2023-05-15T05:46:32;43.92;;;29.95;;
59854;SDS011;45732;52.850;6.896;2023-05-15T05:48:58;40.20;;;29.77;;
59854;SDS011;45732;52.850;6.896;2023-05-15T05:51:24;43.20;;;30.33;;
59854;SDS011;45732;52.850;6.896;2023-05-15T05:53:50;39.67;;;30.10;;
59854;SDS011;45732;52.850;6.896;2023-05-15T05:56:16;46.75;;;31.55;;
59854;SDS011;45732;52.850;6.896;2023-05-15T05:58:41;39.03;;;29.92;;
59854;SDS011;45732;52.850;6.896;2023-05-15T06:01:07;39.83;;;30.65;;
59854;SDS011;45732;52.850;6.896;2023-05-15T06:03:33;41.55;;;31.42;;
59854;SDS011;45732;52.850;6.896;2023-05-15T06:05:59;46.15;;;32.70;;
59854;SDS011;45732;52.850;6.896;2023-05-15T06:08:25;54.75;;;31.05;;
59854;SDS011;45732;52.850;6.896;2023-05-15T06:10:50;43.38;;;31.08;;
59854;SDS011;45732;52.850;6.896;2023-05-15T06:13:16;40.25;;;30.38;;
59854;SDS011;45732;52.850;6.896;2023-05-15T06:15:42;37.85;;;28.48;;
59854;SDS011;45732;52.850;6.896;2023-05-15T06:18:09;36.85;;;28.73;;
59854;SDS011;45732;52.850;6.896;2023-05-15T06:20:35;37.72;;;29.10;;
59854;SDS011;45732;52.850;6.896;2023-05-15T06:23:01;40.72;;;29.65;;
59854;SDS011;45732;52.850;6.896;2023-05-15T06:25:26;45.35;;;32.42;;
59854;SDS011;45732;52.850;6.896;2023-05-15T06:27:52;41.50;;;31.38;;
59854;SDS011;45732;52.850;6.896;2023-05-15T06:30:18;43.55;;;31.15;;
59854;SDS011;45732;52.850;6.896;2023-05-15T06:32:43;44.65;;;32.30;;
59854;SDS011;45732;52.850;6.896;2023-05-15T06:35:09;44.58;;;31.95;;
59854;SDS011;45732;52.850;6.896;2023-05-15T06:37:35;42.00;;;30.02;;
59854;SDS011;45732;52.850;6.896;2023-05-15T06:40:02;40.00;;;30.27;;
59854;SDS011;45732;52.850;6.896;2023-05-15T06:42:30;41.13;;;29.10;;
59854;SDS011;45732;52.850;6.896;2023-05-15T06:44:56;35.00;;;27.48;;
59854;SDS011;45732;52.850;6.896;2023-05-15T06:47:22;34.47;;;26.77;;
59854;SDS011;45732;52.850;6.896;2023-05-15T06:49:48;36.20;;;26.75;;
59854;SDS011;45732;52.850;6.896;2023-05-15T06:52:13;34.13;;;27.05;;
59854;SDS011;45732;52.850;6.896;2023-05-15T06:54:39;36.60;;;26.95;;
59854;SDS011;45732;52.850;6.896;2023-05-15T06:57:06;35.08;;;27.42;;
59854;SDS011;45732;52.850;6.896;2023-05-15T06:59:32;35.65;;;27.48;;
59854;SDS011;45732;52.850;6.896;2023-05-15T07:02:00;37.33;;;27.90;;
59854;SDS011;45732;52.850;6.896;2023-05-15T07:04:29;32.83;;;25.92;;
59854;SDS011;45732;52.850;6.896;2023-05-15T07:06:57;37.08;;;27.30;;
59854;SDS011;45732;52.850;6.896;2023-05-15T07:09:23;31.83;;;25.73;;
59854;SDS011;45732;52.850;6.896;2023-05-15T07:11:49;33.83;;;26.58;;
59854;SDS011;45732;52.850;6.896;2023-05-15T07:14:15;31.52;;;25.65;;
59854;SDS011;45732;52.850;6.896;2023-05-15T07:16:40;30.50;;;24.90;;
59854;SDS011;45732;52.850;6.896;2023-05-15T07:19:07;29.23;;;24.63;;
59854;SDS011;45732;52.850;6.896;2023-05-15T07:21:33;30.75;;;25.38;;
59854;SDS011;45732;52.850;6.896;2023-05-15T07:23:59;28.70;;;24.88;;
59854;SDS011;45732;52.850;6.896;2023-05-15T07:26:25;27.88;;;23.80;;
59854;SDS011;45732;52.850;6.896;2023-05-15T07:28:51;28.67;;;23.98;;
59854;SDS011;45732;52.850;6.896;2023-05-15T07:31:16;28.67;;;23.33;;
59854;SDS011;45732;52.850;6.896;2023-05-15T07:33:42;27.98;;;24.63;;
59854;SDS011;45732;52.850;6.896;2023-05-15T07:36:08;28.60;;;23.75;;
59854;SDS011;45732;52.850;6.896;2023-05-15T07:38:34;27.60;;;23.83;;
59854;SDS011;45732;52.850;6.896;2023-05-15T07:41:00;29.13;;;23.52;;
59854;SDS011;45732;52.850;6.896;2023-05-15T07:43:26;27.30;;;23.20;;
59854;SDS011;45732;52.850;6.896;2023-05-15T07:45:51;24.17;;;21.48;;
59854;SDS011;45732;52.850;6.896;2023-05-15T07:48:18;26.40;;;22.15;;
59854;SDS011;45732;52.850;6.896;2023-05-15T07:50:45;27.13;;;22.33;;
59854;SDS011;45732;52.850;6.896;2023-05-15T07:53:11;23.65;;;21.15;;
59854;SDS011;45732;52.850;6.896;2023-05-15T07:55:37;23.95;;;21.23;;
59854;SDS011;45732;52.850;6.896;2023-05-15T07:58:04;22.05;;;19.85;;
59854;SDS011;45732;52.850;6.896;2023-05-15T08:00:32;22.08;;;18.77;;
59854;SDS011;45732;52.850;6.896;2023-05-15T08:02:58;20.73;;;18.42;;
59854;SDS011;45732;52.850;6.896;2023-05-15T08:05:24;22.15;;;19.63;;
59854;SDS011;45732;52.850;6.896;2023-05-15T08:07:49;21.23;;;18.98;;
59854;SDS011;45732;52.850;6.896;2023-05-15T08:10:15;20.08;;;18.02;;
59854;SDS011;45732;52.850;6.896;2023-05-15T08:12:41;20.05;;;17.88;;
59854;SDS011;45732;52.850;6.896;2023-05-15T08:15:10;21.80;;;18.60;;
59854;SDS011;45732;52.850;6.896;2023-05-15T08:17:36;21.27;;;19.05;;
59854;SDS011;45732;52.850;6.896;2023-05-15T08:20:02;21.13;;;17.23;;
59854;SDS011;45732;52.850;6.896;2023-05-15T08:22:29;19.40;;;17.15;;
59854;SDS011;45732;52.850;6.896;2023-05-15T08:24:55;21.08;;;17.75;;
59854;SDS011;45732;52.850;6.896;2023-05-15T08:27:22;19.45;;;17.13;;
59854;SDS011;45732;52.850;6.896;2023-05-15T08:29:47;18.92;;;16.88;;
59854;SDS011;45732;52.850;6.896;2023-05-15T08:32:13;18.90;;;16.48;;
59854;SDS011;45732;52.850;6.896;2023-05-15T08:34:39;19.15;;;16.85;;
59854;SDS011;45732;52.850;6.896;2023-05-15T08:37:04;19.98;;;16.63;;
59854;SDS011;45732;52.850;6.896;2023-05-15T08:39:31;18.52;;;15.45;;
59854;SDS011;45732;52.850;6.896;2023-05-15T08:41:59;17.85;;;16.00;;
59854;SDS011;45732;52.850;6.896;2023-05-15T08:44:44;18.02;;;16.13;;
59854;SDS011;45732;52.850;6.896;2023-05-15T08:47:10;17.98;;;15.98;;
59854;SDS011;45732;52.850;6.896;2023-05-15T08:52:25;17.13;;;14.88;;
59854;SDS011;45732;52.850;6.896;2023-05-15T08:54:51;19.02;;;15.50;;
59854;SDS011;45732;52.850;6.896;2023-05-15T08:57:17;20.35;;;15.68;;
59854;SDS011;45732;52.850;6.896;2023-05-15T08:59:43;24.75;;;15.00;;
59854;SDS011;45732;52.850;6.896;2023-05-15T09:02:10;17.08;;;14.63;;
59854;SDS011;45732;52.850;6.896;2023-05-15T09:04:36;19.67;;;15.13;;
59854;SDS011;45732;52.850;6.896;2023-05-15T09:07:02;16.08;;;14.07;;
59854;SDS011;45732;52.850;6.896;2023-05-15T09:09:28;17.27;;;14.75;;
59854;SDS011;45732;52.850;6.896;2023-05-15T09:11:56;17.50;;;14.90;;
59854;SDS011;45732;52.850;6.896;2023-05-15T09:14:24;15.40;;;13.57;;
59854;SDS011;45732;52.850;6.896;2023-05-15T09:16:50;17.25;;;14.02;;
59854;SDS011;45732;52.850;6.896;2023-05-15T09:19:17;17.23;;;15.13;;
59854;SDS011;45732;52.850;6.896;2023-05-15T09:21:45;17.13;;;14.00;;
59854;SDS011;45732;52.850;6.896;2023-05-15T09:24:18;16.75;;;13.95;;
59854;SDS011;45732;52.850;6.896;2023-05-15T09:26:47;16.17;;;14.00;;
59854;SDS011;45732;52.850;6.896;2023-05-15T09:29:27;16.13;;;14.10;;
59854;SDS011;45732;52.850;6.896;2023-05-15T09:31:54;18.45;;;12.90;;
59854;SDS011;45732;52.850;6.896;2023-05-15T09:34:33;14.75;;;12.93;;
59854;SDS011;45732;52.850;6.896;2023-05-15T09:37:01;17.13;;;13.80;;
59854;SDS011;45732;52.850;6.896;2023-05-15T09:39:28;34.35;;;14.27;;
59854;SDS011;45732;52.850;6.896;2023-05-15T09:42:04;18.30;;;13.10;;
59854;SDS011;45732;52.850;6.896;2023-05-15T09:44:33;15.07;;;13.48;;
59854;SDS011;45732;52.850;6.896;2023-05-15T09:46:59;17.70;;;14.02;;
59854;SDS011;45732;52.850;6.896;2023-05-15T09:49:28;17.55;;;14.05;;
59854;SDS011;45732;52.850;6.896;2023-05-15T09:51:58;17.10;;;14.20;;
59854;SDS011;45732;52.850;6.896;2023-05-15T09:54:25;15.60;;;13.13;;
59854;SDS011;45732;52.850;6.896;2023-05-15T09:56:54;18.02;;;12.00;;
59854;SDS011;45732;52.850;6.896;2023-05-15T09:59:21;18.05;;;11.88;;
59854;SDS011;45732;52.850;6.896;2023-05-15T10:01:47;16.15;;;11.43;;
59854;SDS011;45732;52.850;6.896;2023-05-15T10:04:15;18.55;;;12.55;;
59854;SDS011;45732;52.850;6.896;2023-05-15T10:06:41;19.52;;;12.07;;
59854;SDS011;45732;52.850;6.896;2023-05-15T10:09:11;17.35;;;11.90;;
59854;SDS011;45732;52.850;6.896;2023-05-15T10:11:43;20.33;;;12.93;;
59854;SDS011;45732;52.850;6.896;2023-05-15T10:14:14;18.67;;;11.35;;
59854;SDS011;45732;52.850;6.896;2023-05-15T10:16:41;14.07;;;11.55;;
59854;SDS011;45732;52.850;6.896;2023-05-15T10:19:08;10.38;;;8.45;;
59854;SDS011;45732;52.850;6.896;2023-05-15T10:21:36;11.52;;;9.70;;
59854;SDS011;45732;52.850;6.896;2023-05-15T10:24:04;18.25;;;9.43;;
59854;SDS011;45732;52.850;6.896;2023-05-15T10:31:34;28.45;;;8.00;;
59854;SDS011;45732;52.850;6.896;2023-05-15T10:34:03;9.50;;;6.72;;
59854;SDS011;45732;52.850;6.896;2023-05-15T10:36:30;10.65;;;7.85;;
59854;SDS011;45732;52.850;6.896;2023-05-15T10:39:01;10.63;;;8.05;;
59854;SDS011;45732;52.850;6.896;2023-05-15T10:41:28;14.45;;;8.48;;
59854;SDS011;45732;52.850;6.896;2023-05-15T10:43:57;11.20;;;8.07;;
59854;SDS011;45732;52.850;6.896;2023-05-15T10:46:23;11.75;;;9.60;;
59854;SDS011;45732;52.850;6.896;2023-05-15T10:48:50;11.13;;;9.23;;
59854;SDS011;45732;52.850;6.896;2023-05-15T10:51:17;10.40;;;8.43;;
59854;SDS011;45732;52.850;6.896;2023-05-15T10:53:47;13.48;;;8.80;;
59854;SDS011;45732;52.850;6.896;2023-05-15T10:56:14;10.95;;;7.90;;
59854;SDS011;45732;52.850;6.896;2023-05-15T10:58:47;10.60;;;6.80;;
59854;SDS011;45732;52.850;6.896;2023-05-15T11:01:27;11.20;;;7.63;;
59854;SDS011;45732;52.850;6.896;2023-05-15T11:04:05;10.43;;;8.38;;
59854;SDS011;45732;52.850;6.896;2023-05-15T11:06:41;7.15;;;5.47;;
59854;SDS011;45732;52.850;6.896;2023-05-15T11:12:02;8.90;;;6.68;;
59854;SDS011;45732;52.850;6.896;2023-05-15T11:14:34;10.75;;;6.63;;
59854;SDS011;45732;52.850;6.896;2023-05-15T11:17:01;10.68;;;7.38;;
59854;SDS011;45732;52.850;6.896;2023-05-15T11:20:11;11.30;;;7.82;;
59854;SDS011;45732;52.850;6.896;2023-05-15T11:22:21;10.15;;;7.40;;
59854;SDS011;45732;52.850;6.896;2023-05-15T11:25:06;13.45;;;8.38;;
59854;SDS011;45732;52.850;6.896;2023-05-15T11:30:06;10.80;;;8.75;;
59854;SDS011;45732;52.850;6.896;2023-05-15T11:38:38;10.00;;;7.70;;
59854;SDS011;45732;52.850;6.896;2023-05-15T11:40:48;10.10;;;7.15;;
59854;SDS011;45732;52.850;6.896;2023-05-15T11:43:26;9.20;;;6.63;;
59854;SDS011;45732;52.850;6.896;2023-05-15T11:48:34;11.00;;;7.55;;
59854;SDS011;45732;52.850;6.896;2023-05-15T11:51:02;11.55;;;8.15;;
59854;SDS011;45732;52.850;6.896;2023-05-15T11:53:28;11.05;;;8.48;;
59854;SDS011;45732;52.850;6.896;2023-05-15T11:55:55;10.43;;;9.07;;
59854;SDS011;45732;52.850;6.896;2023-05-15T11:58:21;13.13;;;8.70;;
59854;SDS011;45732;52.850;6.896;2023-05-15T12:00:49;10.25;;;9.10;;
59854;SDS011;45732;52.850;6.896;2023-05-15T12:03:16;13.60;;;8.63;;
59854;SDS011;45732;52.850;6.896;2023-05-15T12:05:47;11.80;;;9.32;;
59854;SDS011;45732;52.850;6.896;2023-05-15T12:08:13;14.05;;;9.25;;
59854;SDS011;45732;52.850;6.896;2023-05-15T12:10:42;10.73;;;9.18;;
59854;SDS011;45732;52.850;6.896;2023-05-15T12:13:13;13.73;;;9.70;;
59854;SDS011;45732;52.850;6.896;2023-05-15T12:15:42;12.45;;;9.50;;
59854;SDS011;45732;52.850;6.896;2023-05-15T12:18:09;17.42;;;9.73;;
59854;SDS011;45732;52.850;6.896;2023-05-15T12:20:35;13.02;;;9.00;;
59854;SDS011;45732;52.850;6.896;2023-05-15T12:23:03;12.10;;;10.10;;
59854;SDS011;45732;52.850;6.896;2023-05-15T12:25:30;12.77;;;9.43;;
59854;SDS011;45732;52.850;6.896;2023-05-15T12:27:59;12.50;;;9.50;;
59854;SDS011;45732;52.850;6.896;2023-05-15T12:30:25;12.32;;;8.75;;
59854;SDS011;45732;52.850;6.896;2023-05-15T12:32:52;9.95;;;7.75;;
59854;SDS011;45732;52.850;6.896;2023-05-15T12:35:18;10.77;;;8.80;;
59854;SDS011;45732;52.850;6.896;2023-05-15T12:37:44;13.52;;;9.25;;
59854;SDS011;45732;52.850;6.896;2023-05-15T12:40:10;12.95;;;10.40;;
59854;SDS011;45732;52.850;6.896;2023-05-15T12:42:43;12.05;;;9.60;;
59854;SDS011;45732;52.850;6.896;2023-05-15T12:45:13;14.43;;;9.80;;
59854;SDS011;45732;52.850;6.896;2023-05-15T12:47:40;14.18;;;9.88;;
59854;SDS011;45732;52.850;6.896;2023-05-15T12:50:17;12.95;;;9.93;;
59854;SDS011;45732;52.850;6.896;2023-05-15T12:52:55;14.43;;;10.30;;
59854;SDS011;45732;52.850;6.896;2023-05-15T12:55:23;14.40;;;11.25;;
59854;SDS011;45732;52.850;6.896;2023-05-15T12:57:56;16.77;;;10.38;;
59854;SDS011;45732;52.850;6.896;2023-05-15T13:00:24;12.88;;;10.80;;
59854;SDS011;45732;52.850;6.896;2023-05-15T13:02:53;15.55;;;10.20;;
59854;SDS011;45732;52.850;6.896;2023-05-15T13:05:26;12.05;;;10.82;;
59854;SDS011;45732;52.850;6.896;2023-05-15T13:10:20;13.07;;;10.35;;
59854;SDS011;45732;52.850;6.896;2023-05-15T13:12:47;14.10;;;10.20;;
59854;SDS011;45732;52.850;6.896;2023-05-15T13:18:00;11.60;;;9.85;;
59854;SDS011;45732;52.850;6.896;2023-05-15T13:20:27;11.55;;;9.50;;
59854;SDS011;45732;52.850;6.896;2023-05-15T13:22:54;14.68;;;10.23;;
59854;SDS011;45732;52.850;6.896;2023-05-15T13:25:20;12.90;;;10.10;;
59854;SDS011;45732;52.850;6.896;2023-05-15T13:27:46;12.52;;;9.93;;
59854;SDS011;45732;52.850;6.896;2023-05-15T13:30:13;13.45;;;9.00;;
59854;SDS011;45732;52.850;6.896;2023-05-15T13:32:39;12.18;;;9.52;;
59854;SDS011;45732;52.850;6.896;2023-05-15T13:35:05;11.02;;;8.98;;
59854;SDS011;45732;52.850;6.896;2023-05-15T13:37:31;11.60;;;8.77;;
59854;SDS011;45732;52.850;6.896;2023-05-15T13:39:56;14.07;;;10.30;;
59854;SDS011;45732;52.850;6.896;2023-05-15T13:42:22;11.45;;;10.15;;
59854;SDS011;45732;52.850;6.896;2023-05-15T13:44:48;13.35;;;11.02;;
59854;SDS011;45732;52.850;6.896;2023-05-15T13:47:13;12.60;;;10.18;;
59854;SDS011;45732;52.850;6.896;2023-05-15T13:49:39;12.38;;;10.13;;
59854;SDS011;45732;52.850;6.896;2023-05-15T13:52:05;12.15;;;10.65;;
59854;SDS011;45732;52.850;6.896;2023-05-15T13:54:31;12.65;;;10.90;;
59854;SDS011;45732;52.850;6.896;2023-05-15T13:56:58;12.23;;;10.30;;
59854;SDS011;45732;52.850;6.896;2023-05-15T13:59:24;14.10;;;10.48;;
59854;SDS011;45732;52.850;6.896;2023-05-15T14:01:50;12.60;;;10.07;;
59854;SDS011;45732;52.850;6.896;2023-05-15T14:04:16;11.15;;;9.18;;
59854;SDS011;45732;52.850;6.896;2023-05-15T14:06:41;12.48;;;10.10;;
59854;SDS011;45732;52.850;6.896;2023-05-15T14:09:07;10.50;;;9.40;;
59854;SDS011;45732;52.850;6.896;2023-05-15T14:11:33;10.48;;;9.30;;
59854;SDS011;45732;52.850;6.896;2023-05-15T14:13:59;11.63;;;8.98;;
59854;SDS011;45732;52.850;6.896;2023-05-15T14:16:25;10.82;;;8.85;;
59854;SDS011;45732;52.850;6.896;2023-05-15T14:18:51;12.43;;;8.68;;
59854;SDS011;45732;52.850;6.896;2023-05-15T14:21:17;10.60;;;8.27;;
59854;SDS011;45732;52.850;6.896;2023-05-15T14:23:42;10.50;;;8.07;;
59854;SDS011;45732;52.850;6.896;2023-05-15T14:26:08;10.32;;;6.97;;
59854;SDS011;45732;52.850;6.896;2023-05-15T14:28:34;9.20;;;6.57;;
59854;SDS011;45732;52.850;6.896;2023-05-15T14:31:00;8.90;;;5.85;;
59854;SDS011;45732;52.850;6.896;2023-05-15T14:33:25;8.13;;;5.68;;
59854;SDS011;45732;52.850;6.896;2023-05-15T14:35:51;11.25;;;6.10;;
59854;SDS011;45732;52.850;6.896;2023-05-15T14:38:17;8.52;;;6.38;;
59854;SDS011;45732;52.850;6.896;2023-05-15T14:40:43;10.82;;;6.35;;
59854;SDS011;45732;52.850;6.896;2023-05-15T14:43:09;8.95;;;6.80;;
59854;SDS011;45732;52.850;6.896;2023-05-15T14:45:34;9.13;;;6.63;;
59854;SDS011;45732;52.850;6.896;2023-05-15T14:48:00;10.32;;;8.57;;
59854;SDS011;45732;52.850;6.896;2023-05-15T14:50:26;12.15;;;9.25;;
59854;SDS011;45732;52.850;6.896;2023-05-15T14:52:52;12.55;;;10.10;;
59854;SDS011;45732;52.850;6.896;2023-05-15T14:55:18;12.10;;;9.45;;
59854;SDS011;45732;52.850;6.896;2023-05-15T14:57:47;13.88;;;9.73;;
59854;SDS011;45732;52.850;6.896;2023-05-15T15:00:14;12.00;;;9.80;;
59854;SDS011;45732;52.850;6.896;2023-05-15T15:02:43;14.02;;;9.93;;
59854;SDS011;45732;52.850;6.896;2023-05-15T15:05:10;11.05;;;9.38;;
59854;SDS011;45732;52.850;6.896;2023-05-15T15:10:24;14.05;;;9.55;;
59854;SDS011;45732;52.850;6.896;2023-05-15T15:12:50;12.18;;;9.45;;
59854;SDS011;45732;52.850;6.896;2023-05-15T15:15:16;13.18;;;9.20;;